Time;durP1;ratioP1;P1;durP2;ratioP2;P2;SDS_P1;SDS_P2;PMS_P1;PMS_P2;Temp;Humidity;BMP_temperature;BMP_pressure;BME280_temperature;BME280_humidity;BME280_pressure;Samples;Min_cycle;Max_cycle;Signal;HPM_P1;HPM_P2
2022/07/11 00:01:13;;;;;;;4.10;2.60;;;;;;;17.48;77.85;94718.31;4934894;29;20222;-80
2022/07/11 00:03:40;;;;;;;5.33;2.50;;;;;;;17.48;77.31;94718.31;4934205;29;20202;-77
2022/07/11 00:06:07;;;;;;;3.27;2.13;;;;;;;17.34;77.46;94711.97;4933655;29;20696;-76
2022/07/11 00:08:34;;;;;;;2.53;2.33;;;;;;;17.23;78.37;94712.97;4933934;29;20198;-76
2022/07/11 00:11:01;;;;;;;5.40;2.40;;;;;;;17.18;78.77;94720.84;4933660;29;20576;-77
2022/07/11 00:13:29;;;;;;;4.00;2.53;;;;;;;17.24;78.89;94722.44;4933573;29;20204;-76
2022/07/11 00:15:56;;;;;;;3.63;2.60;;;;;;;17.24;78.83;94719.00;4933892;29;20568;-76
2022/07/11 00:18:25;;;;;;;2.60;2.40;;;;;;;17.16;79.39;94716.88;4932789;29;20733;-76
2022/07/11 00:20:52;;;;;;;7.67;2.43;;;;;;;17.20;nan;94721.34;4933675;29;20222;-76
2022/07/11 00:23:19;;;;;;;3.83;2.60;;;;;;;17.16;79.29;94725.56;4933551;29;20206;-76
2022/07/11 00:25:47;;;;;;;7.93;3.03;;;;;;;17.05;80.08;94720.53;4933203;29;20604;-76
2022/07/11 00:28:14;;;;;;;5.80;2.77;;;;;;;17.03;80.45;94718.94;4933313;29;20289;-76
2022/07/11 00:30:42;;;;;;;3.10;2.80;;;;;;;17.10;79.70;94736.28;4933318;29;20209;-76
2022/07/11 00:33:09;;;;;;;5.47;3.40;;;;;;;17.09;79.82;94734.69;4933088;29;20202;-76
2022/07/11 00:35:36;;;;;;;5.40;2.70;;;;;;;17.12;79.65;94734.19;4933223;29;20728;-76
2022/07/11 00:38:03;;;;;;;3.37;2.80;;;;;;;17.13;79.54;94738.41;4933572;29;20230;-79
2022/07/11 00:40:30;;;;;;;2.83;2.30;;;;;;;17.08;79.45;94749.69;4933832;29;20612;-77
2022/07/11 00:42:57;;;;;;;4.97;2.20;;;;;;;17.00;80.10;94739.66;4933975;29;20265;-77
2022/07/11 00:45:24;;;;;;;3.43;2.43;;;;;;;17.05;80.22;94739.69;4933952;29;20199;-77
2022/07/11 00:47:52;;;;;;;3.70;2.27;;;;;;;16.92;80.58;94730.44;4933425;29;20202;-77
2022/07/11 00:50:19;;;;;;;2.67;2.43;;;;;;;16.92;80.77;94733.06;4933349;29;20673;-76
2022/07/11 00:52:46;;;;;;;2.57;2.10;;;;;;;16.94;80.66;94741.47;4933660;29;20202;-77
2022/07/11 00:55:13;;;;;;;5.57;2.43;;;;;;;16.79;81.29;94738.78;4933944;29;20194;-77
2022/07/11 00:57:40;;;;;;;4.50;2.20;;;;;;;16.53;82.92;94742.25;4934131;29;20205;-77
2022/07/11 01:00:09;;;;;;;3.63;2.30;;;;;;;16.35;84.46;94748.69;4934379;29;20226;-77
2022/07/11 01:02:35;;;;;;;6.87;3.33;;;;;;;16.33;84.55;94737.63;4933750;29;20819;-77
2022/07/11 01:05:04;;;;;;;3.23;2.63;;;;;;;16.46;84.38;94744.28;4933753;29;20200;-76
2022/07/11 01:07:33;;;;;;;2.90;2.60;;;;;;;16.51;84.43;94746.94;4933761;29;20253;-76
2022/07/11 01:10:00;;;;;;;6.60;2.83;;;;;;;16.50;84.07;94734.88;4933821;29;20198;-76
2022/07/11 01:12:27;;;;;;;2.90;2.57;;;;;;;16.54;84.24;94741.22;4936151;29;20202;-76
2022/07/11 01:14:55;;;;;;;2.70;2.50;;;;;;;16.55;84.28;94742.81;4937545;29;20674;-75
2022/07/11 01:17:22;;;;;;;3.80;2.60;;;;;;;16.58;83.84;94731.81;4937028;29;20676;-79
2022/07/11 01:19:49;;;;;;;5.07;2.63;;;;;;;16.59;83.68;94733.41;4937466;29;20579;-79
2022/07/11 01:22:20;;;;;;;3.17;2.50;;;;;;;16.56;83.84;94730.50;4937565;29;20206;-79
2022/07/11 01:24:48;;;;;;;2.53;2.10;;;;;;;16.53;83.95;94742.25;4937475;29;20684;-81
2022/07/11 01:27:16;;;;;;;4.30;2.40;;;;;;;16.53;83.65;94742.25;4937681;29;20716;-81
2022/07/11 01:29:42;;;;;;;5.77;2.60;;;;;;;16.59;82.96;94737.84;4937572;29;20199;-79
2022/07/11 01:32:09;;;;;;;4.93;3.00;;;;;;;16.54;82.90;94741.22;4937007;29;20229;-81
2022/07/11 01:34:36;;;;;;;2.57;2.30;;;;;;;16.51;83.00;94738.31;4937333;29;20218;-80
2022/07/11 01:37:03;;;;;;;3.37;2.67;;;;;;;16.45;83.75;94735.63;4937480;29;20222;-79
2022/07/11 01:39:30;;;;;;;4.90;2.40;;;;;;;16.42;83.37;94736.13;4937241;29;20222;-79
2022/07/11 01:41:59;;;;;;;2.57;2.10;;;;;;;16.39;83.64;94726.13;4937138;29;20312;-81
2022/07/11 01:44:26;;;;;;;5.53;2.53;;;;;;;16.38;83.26;94735.06;4937490;29;20224;-78
2022/07/11 01:46:53;;;;;;;3.13;2.53;;;;;;;16.26;83.21;94728.41;4936959;29;20568;-78
2022/07/11 01:49:19;;;;;;;7.20;2.67;;;;;;;16.21;82.92;94726.53;4936946;29;20225;-78
2022/07/11 01:51:47;;;;;;;3.50;2.30;;;;;;;16.07;83.94;94728.00;4936829;29;20673;-77
2022/07/11 01:54:14;;;;;;;2.37;2.17;;;;;;;15.95;84.13;94734.44;4937474;29;20536;-77
2022/07/11 01:56:41;;;;;;;2.80;2.33;;;;;;;15.94;84.28;94733.63;4937022;29;20224;-77
2022/07/11 01:59:09;;;;;;;3.40;2.40;;;;;;;15.86;84.56;94731.47;4936765;29;20665;-77
2022/07/11 02:01:36;;;;;;;3.53;2.43;;;;;;;15.86;84.27;94728.84;4936606;29;20237;-77
2022/07/11 02:04:03;;;;;;;3.43;2.60;;;;;;;15.90;84.77;94738.59;4937063;29;20283;-77
2022/07/11 02:06:30;;;;;;;2.60;2.30;;;;;;;15.87;84.79;94743.56;4936870;29;20213;-77
2022/07/11 02:08:57;;;;;;;2.70;2.20;;;;;;;15.73;85.22;94743.13;4936664;29;20204;-76
2022/07/11 02:11:24;;;;;;;2.93;2.20;;;;;;;15.67;85.12;94743.34;4936214;29;20191;-77
2022/07/11 02:13:51;;;;;;;2.50;2.20;;;;;;;15.66;84.93;94747.00;4936579;29;20194;-76
2022/07/11 02:16:20;;;;;;;3.70;2.30;;;;;;;15.63;85.14;94748.28;4936531;29;20249;-77
2022/07/11 02:18:46;;;;;;;2.20;2.00;;;;;;;15.62;85.13;94746.69;4936610;29;20213;-79
2022/07/11 02:21:13;;;;;;;2.43;2.23;;;;;;;15.64;85.58;94749.09;4936254;29;20228;-78
2022/07/11 02:23:40;;;;;;;4.77;2.20;;;;;;;15.60;85.37;94755.84;4936450;29;20198;-78
2022/07/11 02:26:07;;;;;;;2.60;2.40;;;;;;;15.55;85.58;94748.72;4936279;29;20592;-78
2022/07/11 02:28:36;;;;;;;6.70;2.40;;;;;;;15.49;86.33;94749.72;4936315;29;20233;-78
2022/07/11 02:31:03;;;;;;;4.67;2.30;;;;;;;15.46;86.68;94758.03;4936035;29;20195;-78
2022/07/11 02:33:32;;;;;;;3.30;2.30;;;;;;;15.45;86.92;94766.13;4936207;29;20205;-78
2022/07/11 02:35:59;;;;;;;3.00;2.20;;;;;;;15.40;87.55;94763.44;4936147;29;20206;-78
2022/07/11 02:38:26;;;;;;;3.40;2.30;;;;;;;15.34;87.24;94760.78;4936116;29;20270;-78
2022/07/11 02:40:53;;;;;;;3.83;2.60;;;;;;;15.32;88.01;94767.31;4936000;29;20391;-78
2022/07/11 02:43:20;;;;;;;4.53;2.30;;;;;;;15.31;87.93;94771.75;4935522;29;20199;-78
2022/07/11 02:45:47;;;;;;;2.53;2.13;;;;;;;15.35;87.40;94772.06;4936277;29;20612;-77
2022/07/11 02:48:14;;;;;;;2.87;2.27;;;;;;;15.29;87.85;94767.78;4927422;29;20670;-78
2022/07/11 02:50:42;;;;;;;2.73;2.30;;;;;;;15.31;87.74;94770.94;4916896;29;20199;-78
2022/07/11 02:53:09;;;;;;;2.97;2.40;;;;;;;15.26;88.14;94774.31;4916669;29;20199;-78
2022/07/11 02:55:36;;;;;;;3.43;2.40;;;;;;;15.17;88.29;94759.25;4916394;29;20205;-78
2022/07/11 02:58:03;;;;;;;3.27;2.20;;;;;;;15.15;88.91;94769.19;4916218;29;20199;-78
2022/07/11 03:00:30;;;;;;;4.50;2.47;;;;;;;15.27;88.21;94775.06;4916830;29;20673;-78
2022/07/11 03:02:57;;;;;;;4.43;2.37;;;;;;;15.28;87.97;94777.47;4916853;29;20217;-78
2022/07/11 03:05:24;;;;;;;4.00;2.40;;;;;;;15.25;87.78;94769.28;4916756;29;20199;-77
2022/07/11 03:07:53;;;;;;;4.87;2.50;;;;;;;15.25;88.44;94774.53;4916476;29;20289;-77
2022/07/11 03:10:19;;;;;;;4.10;2.50;;;;;;;15.22;88.75;94770.56;4916380;29;20681;-76
2022/07/11 03:12:47;;;;;;;2.93;2.27;;;;;;;15.23;88.47;94772.19;4916191;29;20207;-76
2022/07/11 03:15:14;;;;;;;4.10;2.30;;;;;;;15.17;88.52;94773.13;4916431;29;20198;-76
2022/07/11 03:17:41;;;;;;;9.73;2.50;;;;;;;15.02;89.04;94774.75;4920638;29;20210;-76
2022/07/11 03:20:09;;;;;;;2.73;2.43;;;;;;;15.04;89.67;94777.91;4935009;29;20602;-76
2022/07/11 03:22:36;;;;;;;2.77;2.30;;;;;;;15.09;88.54;94778.78;4935033;29;20202;-76
2022/07/11 03:25:06;;;;;;;2.77;2.50;;;;;;;15.19;88.57;94789.38;4935476;29;20202;-76
2022/07/11 03:27:33;;;;;;;2.60;2.40;;;;;;;15.29;88.06;94783.50;4934637;29;20209;-76
2022/07/11 03:30:00;;;;;;;3.97;2.43;;;;;;;15.35;87.32;94783.28;4934933;29;20194;-76
2022/07/11 03:32:26;;;;;;;3.70;2.20;;;;;;;15.52;86.53;94793.75;4934799;29;20194;-77
2022/07/11 03:37:38;;;;;;;3.20;2.23;;;;;;;15.62;86.07;94793.84;4934264;29;20228;-75
2022/07/11 03:40:08;;;;;;;2.80;2.50;;;;;;;15.63;85.88;94795.44;4934387;29;20186;-74
2022/07/11 03:42:35;;;;;;;9.20;2.47;;;;;;;15.68;85.96;94807.81;4933980;29;20680;-76
2022/07/11 03:45:02;;;;;;;2.63;2.43;;;;;;;15.74;85.16;94809.44;4934204;29;20202;-75
2022/07/11 03:47:29;;;;;;;2.20;2.00;;;;;;;15.75;85.46;94796.13;4931553;29;20201;-75
2022/07/11 03:49:57;;;;;;;4.00;2.40;;;;;;;15.72;85.73;94806.28;4916262;29;20261;-75
2022/07/11 03:52:23;;;;;;;4.57;2.67;;;;;;;15.66;86.21;94808.06;4915730;29;20287;-75
2022/07/11 03:54:50;;;;;;;6.40;2.37;;;;;;;15.66;86.84;94808.06;4915410;29;20750;-74
2022/07/11 03:57:19;;;;;;;7.87;2.83;;;;;;;15.66;87.15;94815.94;4915454;29;20219;-74
2022/07/11 03:59:45;;;;;;;5.53;2.50;;;;;;;15.68;86.81;94813.84;4915378;29;20208;-75
2022/07/11 04:02:12;;;;;;;3.23;2.60;;;;;;;15.66;87.66;94820.38;4915183;29;20743;-74
2022/07/11 04:04:39;;;;;;;4.30;2.50;;;;;;;15.74;86.76;94827.78;4915479;29;20191;-74
2022/07/11 04:07:06;;;;;;;6.57;2.47;;;;;;;15.77;87.06;94832.53;4915366;29;20195;-75
2022/07/11 04:09:33;;;;;;;6.83;2.80;;;;;;;15.61;88.18;94823.72;4914520;29;20621;-75
2022/07/11 04:12:00;;;;;;;4.23;2.80;;;;;;;15.61;88.48;94830.78;4914832;29;20207;-77
2022/07/11 04:14:28;;;;;;;5.43;2.53;;;;;;;15.72;88.66;94832.50;4887059;29;20202;-77
2022/07/11 04:16:55;;;;;;;3.47;2.53;;;;;;;15.67;89.01;94833.22;4925599;29;20239;-78
2022/07/11 04:19:23;;;;;;;4.53;2.67;;;;;;;15.78;89.17;94844.63;4929268;29;20446;-76
2022/07/11 04:21:51;;;;;;;5.27;2.67;;;;;;;15.79;89.04;94830.47;4921326;29;20231;-75
2022/07/11 04:24:18;;;;;;;4.70;2.73;;;;;;;15.71;89.82;94834.31;4941158;29;20237;-75
2022/07/11 04:26:45;;;;;;;4.87;2.57;;;;;;;15.67;89.95;94829.81;4932881;29;20679;-75
2022/07/11 04:29:12;;;;;;;3.17;2.57;;;;;;;15.70;90.44;94837.97;4929978;29;20265;-75
2022/07/11 04:31:40;;;;;;;7.80;2.90;;;;;;;15.84;90.13;94841.78;4926955;29;20209;-75
2022/07/11 04:34:07;;;;;;;6.93;2.70;;;;;;;15.92;89.34;94834.53;4929452;29;20209;-75
2022/07/11 04:36:34;;;;;;;3.53;2.87;;;;;;;16.03;87.53;94834.41;4953027;29;20197;-75
2022/07/11 04:39:01;;;;;;;3.10;2.60;;;;;;;16.06;87.94;94843.59;4936441;29;20237;-75
2022/07/11 04:41:28;;;;;;;3.00;2.70;;;;;;;16.04;88.75;94843.88;4933024;29;20720;-75
2022/07/11 04:43:55;;;;;;;5.27;2.83;;;;;;;16.13;87.05;94833.72;4933358;29;20206;-75
2022/07/11 04:46:22;;;;;;;4.03;2.70;;;;;;;16.18;86.82;94841.63;4932255;29;20224;-75
2022/07/11 04:48:50;;;;;;;5.30;2.97;;;;;;;16.19;86.50;94837.97;4933098;29;20210;-75
2022/07/11 04:51:17;;;;;;;5.13;3.23;;;;;;;16.13;88.02;94844.97;4933012;29;20288;-76
2022/07/11 04:53:44;;;;;;;4.50;2.67;;;;;;;16.12;88.04;94840.78;4933232;29;20258;-76
2022/07/11 04:56:11;;;;;;;4.57;2.70;;;;;;;16.06;88.80;94828.66;4933322;29;20666;-75
2022/07/11 04:58:38;;;;;;;3.00;2.70;;;;;;;16.12;89.75;94835.53;4933397;29;20206;-78
2022/07/11 05:01:05;;;;;;;3.10;2.50;;;;;;;16.24;88.75;94844.06;4933700;29;20222;-78
2022/07/11 05:03:33;;;;;;;4.63;2.80;;;;;;;16.25;89.22;94850.88;4933631;29;20198;-77
2022/07/11 05:06:02;;;;;;;3.40;2.70;;;;;;;16.11;90.12;94841.81;4934569;29;20741;-90
2022/07/11 05:08:29;;;;;;;3.63;2.70;;;;;;;16.12;90.66;94850.47;4937480;29;20752;-75
2022/07/11 05:10:56;;;;;;;3.80;2.80;;;;;;;16.17;91.54;94855.78;4952102;29;20200;-76
2022/07/11 05:13:22;;;;;;;5.33;2.70;;;;;;;16.30;91.38;94860.63;4952701;29;20207;-78
2022/07/11 05:15:49;;;;;;;3.90;3.20;;;;;;;16.31;91.08;94862.22;4952477;29;20197;-78
2022/07/11 05:18:16;;;;;;;7.37;3.00;;;;;;;16.25;91.56;94864.00;4943639;29;20210;-78
2022/07/11 05:20:43;;;;;;;3.67;3.13;;;;;;;16.26;92.03;94856.91;4932402;29;20919;-77
2022/07/11 05:23:11;;;;;;;5.00;3.00;;;;;;;16.20;91.66;94863.94;4932805;29;20225;-76
2022/07/11 05:25:38;;;;;;;3.63;3.23;;;;;;;16.26;91.68;94859.53;4933134;29;20206;-80
2022/07/11 05:28:05;;;;;;;3.80;3.10;;;;;;;16.29;90.74;94859.84;4933827;29;20687;-80
2022/07/11 05:30:33;;;;;;;4.87;3.03;;;;;;;16.33;89.81;94858.28;4933774;29;20198;-80
2022/07/11 05:33:00;;;;;;;10.63;3.10;;;;;;;16.46;85.64;94867.59;4933548;29;20665;-79
2022/07/11 05:35:27;;;;;;;8.27;3.17;;;;;;;16.51;84.91;94867.63;4933553;29;20194;-77
2022/07/11 05:37:54;;;;;;;5.87;2.40;;;;;;;16.52;79.87;94879.72;4932760;29;20238;-79
2022/07/11 05:40:22;;;;;;;4.57;2.37;;;;;;;16.60;76.27;94883.75;4933245;29;20198;-79
2022/07/11 05:42:49;;;;;;;4.80;2.60;;;;;;;16.61;77.26;94880.09;4933379;29;20606;-82
2022/07/11 05:45:16;;;;;;;5.30;2.20;;;;;;;16.68;75.64;94889.34;4934085;29;20202;-83
2022/07/11 05:47:43;;;;;;;5.90;2.77;;;;;;;16.71;75.32;94880.19;4931316;29;20234;-83
2022/07/11 05:50:10;;;;;;;5.73;2.00;;;;;;;16.73;74.04;94878.91;4912618;29;20297;-79
2022/07/11 05:52:37;;;;;;;3.13;1.80;;;;;;;16.70;69.44;94882.03;4921976;29;20275;-78
2022/07/11 05:55:05;;;;;;;5.27;1.90;;;;;;;16.79;68.45;94901.53;4922178;29;20206;-80
2022/07/11 05:57:34;;;;;;;1.67;1.57;;;;;;;16.91;67.88;94890.88;4922321;29;20198;-79
2022/07/11 06:00:01;;;;;;;4.73;1.93;;;;;;;16.86;67.85;94902.09;4926247;29;20194;-79
2022/07/11 06:02:27;;;;;;;2.90;1.80;;;;;;;16.87;67.24;94901.06;4927179;29;20748;-80
2022/07/11 06:04:54;;;;;;;4.10;1.80;;;;;;;16.89;66.68;94891.09;4922448;29;20194;-80
2022/07/11 06:10:17;;;;;;;1.73;1.60;;;;;;;16.91;66.02;94883.00;4875420;29;20204;-75
2022/07/11 06:12:45;;;;;;;3.03;1.80;;;;;;;16.93;66.08;94873.03;4902476;29;20199;-75
2022/07/11 06:15:12;;;;;;;5.40;1.70;;;;;;;16.91;67.16;94875.09;4916668;29;20205;-76
2022/07/11 06:17:39;;;;;;;2.60;1.80;;;;;;;17.06;65.83;94874.41;4916309;29;20202;-75
2022/07/11 06:20:08;;;;;;;3.90;1.80;;;;;;;17.10;65.81;94883.38;4916511;29;20689;-75
2022/07/11 06:22:35;;;;;;;2.90;1.80;;;;;;;17.13;65.29;94888.91;4915465;29;20258;-76
2022/07/11 06:25:02;;;;;;;3.67;1.80;;;;;;;17.14;65.28;94889.72;4916794;29;20201;-76
2022/07/11 06:27:28;;;;;;;4.83;1.87;;;;;;;17.12;64.58;94891.78;4916423;29;20241;-75
2022/07/11 06:29:57;;;;;;;3.63;1.77;;;;;;;17.16;64.61;94892.88;4916583;29;20588;-75
2022/07/11 06:32:24;;;;;;;6.37;1.70;;;;;;;17.17;64.45;94897.84;4907973;29;20214;-75
2022/07/11 06:34:51;;;;;;;1.93;1.43;;;;;;;17.23;64.09;94891.59;4916244;29;20198;-74
2022/07/11 06:37:18;;;;;;;5.07;1.57;;;;;;;17.23;63.04;94886.34;4915522;29;20194;-74
2022/07/11 06:39:44;;;;;;;4.63;1.40;;;;;;;17.24;63.58;94882.69;4946770;29;20198;-74
2022/07/11 06:42:11;;;;;;;2.37;1.50;;;;;;;17.29;63.20;94882.72;4953874;29;20673;-74
2022/07/11 06:44:38;;;;;;;2.53;1.70;;;;;;;17.37;62.10;94889.34;4954027;29;20588;-75
2022/07/11 06:47:06;;;;;;;2.03;1.50;;;;;;;17.28;60.58;94873.25;4955961;28;20205;-75
2022/07/11 06:49:34;;;;;;;2.37;1.50;;;;;;;17.36;61.26;94885.91;4954217;29;20213;-74
2022/07/11 06:52:00;;;;;;;3.97;1.80;;;;;;;17.42;61.93;94890.16;4958945;28;20198;-80
2022/07/11 06:54:27;;;;;;;4.70;1.60;;;;;;;17.58;58.51;94880.53;4967897;28;20193;-82
2022/07/11 06:56:54;;;;;;;3.93;1.30;;;;;;;17.66;58.47;94889.78;4963382;28;20190;-75
2022/07/11 06:59:21;;;;;;;1.97;1.60;;;;;;;17.65;58.59;94882.94;4961853;28;20205;-75
2022/07/11 07:01:48;;;;;;;4.13;1.90;;;;;;;17.67;57.63;94883.47;4962296;28;20213;-76
2022/07/11 07:04:17;;;;;;;4.37;2.10;;;;;;;17.69;58.06;94881.41;4962818;28;20208;-74
2022/07/11 07:06:44;;;;;;;4.90;1.40;;;;;;;17.69;58.01;94871.66;4963913;28;20279;-75
2022/07/11 07:09:11;;;;;;;2.43;1.40;;;;;;;17.71;58.64;94877.47;4961343;28;20208;-74
2022/07/11 07:11:38;;;;;;;4.87;1.80;;;;;;;17.74;60.21;94876.94;4962080;28;20645;-74
2022/07/11 07:14:05;;;;;;;3.10;1.83;;;;;;;17.83;60.41;94869.34;4963567;28;20204;-74
2022/07/11 07:16:32;;;;;;;5.13;1.80;;;;;;;17.88;60.97;94869.38;4961711;28;20208;-74
2022/07/11 07:19:00;;;;;;;2.33;1.90;;;;;;;17.90;61.63;94862.00;4962590;28;20572;-75
2022/07/11 07:21:29;;;;;;;1.70;1.50;;;;;;;17.87;62.09;94868.56;4955505;28;20636;-75
2022/07/11 07:23:56;;;;;;;3.93;1.60;;;;;;;17.86;61.90;94866.22;4952335;29;20288;-74
2022/07/11 07:26:23;;;;;;;4.60;1.70;;;;;;;17.84;62.39;94879.59;4950036;29;20205;-74
2022/07/11 07:28:52;;;;;;;2.50;1.50;;;;;;;17.82;62.38;94880.91;4953167;29;20194;-74
2022/07/11 07:31:19;;;;;;;2.90;1.53;;;;;;;17.82;60.98;94880.91;4952691;29;20186;-75
2022/07/11 07:33:46;;;;;;;3.37;1.60;;;;;;;17.81;61.05;94881.94;4953115;29;20250;-74
2022/07/11 07:36:12;;;;;;;4.03;1.90;;;;;;;17.70;60.96;94870.59;4953204;29;20197;-73
2022/07/11 07:38:43;;;;;;;2.70;1.67;;;;;;;17.79;61.91;94881.44;4953297;29;20233;-73
2022/07/11 07:41:10;;;;;;;6.87;1.70;;;;;;;17.75;61.31;94869.84;4953858;29;20185;-79
2022/07/11 07:43:37;;;;;;;2.03;1.60;;;;;;;17.91;61.24;94874.91;4953562;29;20241;-73
2022/07/11 07:46:05;;;;;;;5.50;1.67;;;;;;;18.00;61.19;94883.88;4952989;29;20741;-72
2022/07/11 07:48:32;;;;;;;5.17;1.80;;;;;;;18.02;60.55;94867.84;4952337;29;20221;-72
2022/07/11 07:50:58;;;;;;;5.00;1.60;;;;;;;18.03;60.22;94872.06;4952601;29;20617;-72
2022/07/11 07:53:25;;;;;;;4.67;1.70;;;;;;;18.05;61.00;94868.13;4952119;29;20232;-73
2022/07/11 07:55:54;;;;;;;3.63;1.70;;;;;;;18.10;60.42;94869.97;4951742;29;20593;-73
2022/07/11 07:58:21;;;;;;;2.97;1.67;;;;;;;18.10;60.67;94875.22;4951684;28;20200;-72
2022/07/11 08:03:32;;;;;;;2.63;1.40;;;;;;;18.12;61.07;94879.16;4947599;29;20224;-72
2022/07/11 08:05:59;;;;;;;5.37;1.53;;;;;;;18.15;60.14;94885.78;4952097;28;20199;-73
2022/07/11 08:08:26;;;;;;;2.33;1.43;;;;;;;18.13;60.03;94888.66;4948647;28;20208;-74
2022/07/11 08:10:55;;;;;;;5.87;1.47;;;;;;;18.18;60.08;94885.25;4952168;28;20206;-74
2022/07/11 08:13:22;;;;;;;2.83;1.40;;;;;;;18.07;58.92;94881.78;4971019;28;20683;-73
2022/07/11 08:15:49;;;;;;;2.33;1.40;;;;;;;18.08;59.21;94886.00;4971753;28;20208;-73
2022/07/11 08:18:16;;;;;;;5.60;1.53;;;;;;;18.13;59.70;94885.22;4962156;28;20220;-78
2022/07/11 08:20:43;;;;;;;1.93;1.40;;;;;;;18.18;59.13;94887.91;4952507;28;20209;-77
2022/07/11 08:23:10;;;;;;;1.73;1.40;;;;;;;18.23;58.45;94877.38;4952219;29;21666;-79
2022/07/11 08:25:37;;;;;;;1.70;1.50;;;;;;;18.27;59.00;94894.22;4951918;29;20200;-77
2022/07/11 08:28:05;;;;;;;6.80;1.50;;;;;;;18.35;60.39;94893.72;4951424;29;20260;-77
2022/07/11 08:30:32;;;;;;;3.77;1.60;;;;;;;18.33;57.06;94881.84;4951717;29;20200;-77
2022/07/11 08:32:59;;;;;;;2.03;1.50;;;;;;;18.59;59.60;94875.59;4951743;29;20197;-77
2022/07/11 08:35:26;;;;;;;9.13;1.77;;;;;;;18.63;56.97;94877.47;4951921;29;20214;-77
2022/07/11 08:37:53;;;;;;;1.50;1.30;;;;;;;18.69;64.65;94865.09;4951747;29;20265;-77
2022/07/11 08:40:20;;;;;;;1.67;1.27;;;;;;;18.74;58.96;94880.91;4952082;29;20616;-77
2022/07/11 08:42:47;;;;;;;6.23;1.60;;;;;;;18.96;56.98;94880.66;4971323;28;20231;-78
2022/07/11 08:45:17;;;;;;;2.50;1.50;;;;;;;18.92;55.71;94890.13;4971425;28;20204;-79
2022/07/11 08:47:45;;;;;;;1.58;1.48;;;;;;;18.83;53.87;94881.16;4966670;28;20219;-78
2022/07/11 08:50:13;;;;;;;4.47;1.60;;;;;;;18.80;54.40;94884.31;4952834;29;20226;-81
2022/07/11 08:52:43;;;;;;;4.45;1.70;;;;;;;18.85;53.71;94874.56;4953185;29;20193;-80
2022/07/11 08:55:10;;;;;;;5.10;1.63;;;;;;;18.84;53.79;94869.59;4952330;29;20233;-79
2022/07/11 08:57:37;;;;;;;5.03;2.10;;;;;;;18.59;54.56;94867.72;4952784;29;20193;-79
2022/07/11 09:00:07;;;;;;;2.43;1.60;;;;;;;18.66;55.35;94874.31;4952581;29;20201;-81
2022/07/11 09:02:36;;;;;;;4.20;1.70;;;;;;;18.70;54.60;94878.00;4952991;29;20229;-81
2022/07/11 09:05:05;;;;;;;4.20;1.50;;;;;;;18.84;54.09;94888.81;4952967;29;20205;-80
2022/07/11 09:07:32;;;;;;;2.70;1.50;;;;;;;18.98;54.29;94881.16;4952628;29;20669;-80
2022/07/11 09:09:59;;;;;;;4.43;1.43;;;;;;;19.09;54.11;94901.97;4952949;29;20198;-80
2022/07/11 09:12:26;;;;;;;4.20;1.50;;;;;;;19.09;51.86;94898.56;4952693;29;20202;-81
2022/07/11 09:14:53;;;;;;;3.20;1.70;;;;;;;19.09;52.15;94906.44;4952726;29;20197;-81
2022/07/11 09:17:26;;;;;;;7.67;1.50;;;;;;;19.05;52.52;94897.47;4952696;29;20197;-73
2022/07/11 09:19:55;;;;;;;2.97;1.40;;;;;;;19.09;52.70;94890.66;4951938;29;20193;-74
2022/07/11 09:25:21;;;;;;;4.83;1.83;;;;;;;18.97;52.43;94900.66;4951480;29;20193;-74
2022/07/11 09:27:50;;;;;;;9.70;2.03;;;;;;;18.73;52.23;94891.72;4949945;29;20209;-76
2022/07/11 09:30:24;;;;;;;6.33;1.80;;;;;;;18.72;53.15;94887.47;4949742;29;20202;-75
2022/07/11 09:32:57;;;;;;;4.28;2.90;;;;;;;18.91;53.76;94891.97;4953023;28;20597;-75
2022/07/11 09:35:27;;;;;;;6.80;2.80;;;;;;;19.09;52.96;94891.44;4954954;29;20201;-75
2022/07/11 09:37:54;;;;;;;6.38;2.10;;;;;;;19.13;52.30;94892.47;4954344;29;20331;-75
2022/07/11 09:40:22;;;;;;;4.37;2.13;;;;;;;19.16;52.24;94899.84;4954555;29;20304;-75
2022/07/11 09:42:51;;;;;;;4.10;1.60;;;;;;;19.22;52.04;94898.78;4954542;29;20221;-75
2022/07/11 09:45:19;;;;;;;3.50;1.48;;;;;;;19.36;51.83;94901.69;4953403;29;20256;-74
2022/07/11 09:47:47;;;;;;;7.40;2.40;;;;;;;19.45;51.51;94886.16;4953470;29;20202;-76
2022/07/11 09:50:18;;;;;;;5.45;1.55;;;;;;;19.51;52.40;94900.91;4952899;29;20197;-76
2022/07/11 09:52:59;;;;;;;3.05;1.45;;;;;;;19.75;50.06;94896.59;4954138;29;20549;-75
2022/07/11 09:55:26;;;;;;;1.73;1.30;;;;;;;19.82;50.15;94897.13;4953732;29;20273;-75
2022/07/11 09:57:54;;;;;;;3.25;1.63;;;;;;;19.88;50.19;94898.69;4953559;29;20207;-75
2022/07/11 10:00:21;;;;;;;3.35;1.45;;;;;;;19.82;50.38;94897.13;4951929;29;20204;-75
2022/07/11 10:02:49;;;;;;;2.42;1.58;;;;;;;19.67;51.88;94894.53;4954195;29;20264;-75
2022/07/11 10:05:16;;;;;;;3.88;1.30;;;;;;;19.85;53.06;94911.63;4955302;29;20256;-81
2022/07/11 10:07:43;;;;;;;3.05;1.80;;;;;;;19.90;51.24;94887.84;4955803;29;20588;-83
2022/07/11 10:10:11;;;;;;;4.78;1.77;;;;;;;19.99;51.99;94883.59;4955660;29;20202;-80
2022/07/11 10:12:39;;;;;;;3.22;1.60;;;;;;;20.18;51.67;94910.97;4955711;29;20189;-81
2022/07/11 10:15:09;;;;;;;5.53;1.40;;;;;;;20.30;50.91;94903.53;4955609;29;20201;-81
2022/07/11 10:17:48;;;;;;;3.85;1.40;;;;;;;20.28;50.03;94909.09;4955252;29;20592;-81
2022/07/11 10:20:22;;;;;;;2.75;1.38;;;;;;;20.37;51.70;94904.06;4954780;29;20186;-81
2022/07/11 10:22:57;;;;;;;12.43;1.33;;;;;;;20.58;50.74;94905.50;4954806;29;20217;-80
2022/07/11 10:25:32;;;;;;;3.33;1.48;;;;;;;20.74;49.81;94911.47;4967685;28;20201;-81
2022/07/11 10:28:17;;;;;;;5.80;1.55;;;;;;;20.90;49.39;94913.72;4954883;29;20685;-80
2022/07/11 10:30:46;;;;;;;1.73;1.58;;;;;;;20.95;50.01;94916.31;4955257;29;20651;-81
2022/07/11 10:33:15;;;;;;;5.32;1.35;;;;;;;21.04;48.75;94908.59;4955127;29;20193;-80
2022/07/11 10:35:43;;;;;;;3.67;1.42;;;;;;;20.93;49.88;94907.91;4955164;29;20198;-81
2022/07/11 10:38:10;;;;;;;2.70;1.55;;;;;;;21.05;49.10;94918.13;4954979;29;20233;-79
2022/07/11 10:40:49;;;;;;;1.90;1.67;;;;;;;21.07;48.91;94929.19;4955034;29;20200;-82
2022/07/11 10:43:33;;;;;;;1.95;1.42;;;;;;;21.17;48.30;94915.16;4954732;28;20256;-75
2022/07/11 10:46:02;;;;;;;1.77;1.35;;;;;;;21.17;48.39;94917.78;4951802;29;20286;-75
2022/07/11 10:48:31;;;;;;;3.90;1.40;;;;;;;21.35;48.26;94928.50;4954019;29;20208;-75
2022/07/11 10:51:23;;;;;;;2.38;2.00;;;;;;;21.29;47.67;94910.28;4954400;29;20206;-75
2022/07/11 10:53:52;;;;;;;2.58;1.50;;;;;;;21.45;47.85;94923.09;4953534;29;20563;-75
2022/07/11 10:56:38;;;;;;;2.85;1.35;;;;;;;21.59;48.18;94907.34;4952807;29;20201;-75
2022/07/11 10:59:14;;;;;;;2.40;1.50;;;;;;;21.83;47.11;94918.75;4952215;29;20617;-75
2022/07/11 11:02:20;;;;;;;2.67;2.00;;;;;;;21.88;47.06;94918.72;4951609;29;20241;-75
2022/07/11 11:04:57;;;;;;;3.03;1.60;;;;;;;21.95;46.52;94913.09;4933204;29;20236;-75
2022/07/11 11:07:38;;;;;;;4.63;1.67;;;;;;;21.85;47.02;94915.81;4951893;29;20185;-75
2022/07/11 11:10:49;;;;;;;3.17;1.40;;;;;;;21.94;46.29;94932.69;4952144;29;20205;-74
2022/07/11 11:13:20;;;;;;;2.22;1.40;;;;;;;22.20;46.69;94928.66;4953402;29;20209;-75
2022/07/11 11:15:48;;;;;;;2.90;1.52;;;;;;;22.46;45.68;94921.19;4953641;29;20244;-75
2022/07/11 11:18:42;;;;;;;3.25;1.48;;;;;;;22.74;44.90;94930.88;4953910;29;20205;-76
2022/07/11 11:21:30;;;;;;;5.13;1.60;;;;;;;22.66;44.97;94915.63;4952827;29;20205;-75
2022/07/11 11:24:08;;;;;;;1.52;1.40;;;;;;;22.38;45.29;94919.97;4953643;29;20212;-76
2022/07/11 11:26:49;;;;;;;7.30;1.70;;;;;;;22.42;45.58;94913.00;4952658;29;20213;-76
2022/07/11 11:29:23;;;;;;;4.97;1.75;;;;;;;22.84;44.35;94919.38;4952937;29;20201;-76
2022/07/11 11:31:53;;;;;;;3.65;1.90;;;;;;;22.87;42.61;94924.88;4952757;29;20646;-76
2022/07/11 11:34:20;;;;;;;6.05;1.60;;;;;;;22.76;42.44;94920.81;4953216;29;20201;-76
2022/07/11 11:36:54;;;;;;;2.05;1.60;;;;;;;22.91;44.21;94911.84;4953650;29;20575;-76
2022/07/11 11:39:29;;;;;;;1.95;1.40;;;;;;;22.86;44.78;94912.69;4952616;29;20719;-75
2022/07/11 11:42:04;;;;;;;3.08;1.40;;;;;;;23.13;44.22;94904.06;4952369;29;20668;-75
2022/07/11 11:44:33;;;;;;;3.28;1.77;;;;;;;23.60;43.71;94921.63;4952427;29;20584;-75
2022/07/11 11:47:00;;;;;;;4.00;1.52;;;;;;;24.11;43.07;94916.97;4952406;29;20614;-76
2022/07/11 11:49:27;;;;;;;1.70;1.60;;;;;;;24.08;42.82;94922.03;4968371;28;20201;-83
2022/07/11 11:51:56;;;;;;;5.00;1.38;;;;;;;24.38;43.03;94926.00;4972912;28;20208;-83